sensor_id;sensor_type;location;lat;lon;timestamp;P1;durP1;ratioP1;P2;durP2;ratioP2
31336;SDS011;22846;42.654;23.314;2023-04-22T00:02:13;10.63;;;7.88;;
31336;SDS011;22846;42.654;23.314;2023-04-22T00:04:40;10.68;;;8.07;;
31336;SDS011;22846;42.654;23.314;2023-04-22T00:07:06;10.65;;;7.60;;
31336;SDS011;22846;42.654;23.314;2023-04-22T00:09:32;10.38;;;7.53;;
31336;SDS011;22846;42.654;23.314;2023-04-22T00:11:57;10.93;;;7.25;;
31336;SDS011;22846;42.654;23.314;2023-04-22T00:14:23;8.75;;;7.32;;
31336;SDS011;22846;42.654;23.314;2023-04-22T00:16:48;9.32;;;7.07;;
31336;SDS011;22846;42.654;23.314;2023-04-22T00:19:14;9.82;;;7.88;;
31336;SDS011;22846;42.654;23.314;2023-04-22T00:21:40;8.93;;;7.43;;
31336;SDS011;22846;42.654;23.314;2023-04-22T00:24:05;10.70;;;8.00;;
31336;SDS011;22846;42.654;23.314;2023-04-22T00:26:31;10.38;;;7.47;;
31336;SDS011;22846;42.654;23.314;2023-04-22T00:28:56;9.43;;;7.43;;
31336;SDS011;22846;42.654;23.314;2023-04-22T00:31:22;10.35;;;7.55;;
31336;SDS011;22846;42.654;23.314;2023-04-22T00:33:47;10.27;;;7.38;;
31336;SDS011;22846;42.654;23.314;2023-04-22T00:36:13;8.95;;;7.13;;
31336;SDS011;22846;42.654;23.314;2023-04-22T00:38:38;9.68;;;7.13;;
31336;SDS011;22846;42.654;23.314;2023-04-22T00:41:04;10.73;;;7.53;;
31336;SDS011;22846;42.654;23.314;2023-04-22T00:43:30;9.43;;;7.07;;
31336;SDS011;22846;42.654;23.314;2023-04-22T00:45:56;10.80;;;7.25;;
31336;SDS011;22846;42.654;23.314;2023-04-22T00:48:22;8.70;;;6.90;;
31336;SDS011;22846;42.654;23.314;2023-04-22T00:50:48;8.50;;;6.80;;
31336;SDS011;22846;42.654;23.314;2023-04-22T00:53:14;8.15;;;6.93;;
31336;SDS011;22846;42.654;23.314;2023-04-22T00:55:39;7.82;;;6.40;;
31336;SDS011;22846;42.654;23.314;2023-04-22T00:58:05;9.13;;;7.22;;
31336;SDS011;22846;42.654;23.314;2023-04-22T01:00:31;9.45;;;7.10;;
31336;SDS011;22846;42.654;23.314;2023-04-22T01:02:56;8.10;;;6.43;;
31336;SDS011;22846;42.654;23.314;2023-04-22T01:05:22;7.57;;;6.43;;
31336;SDS011;22846;42.654;23.314;2023-04-22T01:07:48;9.23;;;6.95;;
31336;SDS011;22846;42.654;23.314;2023-04-22T01:10:15;8.38;;;7.25;;
31336;SDS011;22846;42.654;23.314;2023-04-22T01:12:40;7.95;;;6.57;;
31336;SDS011;22846;42.654;23.314;2023-04-22T01:15:06;10.00;;;6.68;;
31336;SDS011;22846;42.654;23.314;2023-04-22T01:17:32;8.02;;;6.53;;
31336;SDS011;22846;42.654;23.314;2023-04-22T01:19:58;8.52;;;6.05;;
31336;SDS011;22846;42.654;23.314;2023-04-22T01:22:24;9.48;;;6.60;;
31336;SDS011;22846;42.654;23.314;2023-04-22T01:24:51;7.57;;;6.20;;
31336;SDS011;22846;42.654;23.314;2023-04-22T01:27:18;8.10;;;6.20;;
31336;SDS011;22846;42.654;23.314;2023-04-22T01:29:43;8.32;;;6.43;;
31336;SDS011;22846;42.654;23.314;2023-04-22T01:32:09;7.38;;;6.03;;
31336;SDS011;22846;42.654;23.314;2023-04-22T01:34:34;7.55;;;6.47;;
31336;SDS011;22846;42.654;23.314;2023-04-22T01:37:00;9.75;;;6.72;;
31336;SDS011;22846;42.654;23.314;2023-04-22T01:39:25;8.02;;;6.07;;
31336;SDS011;22846;42.654;23.314;2023-04-22T01:41:51;8.13;;;6.35;;
31336;SDS011;22846;42.654;23.314;2023-04-22T01:44:17;9.98;;;6.70;;
31336;SDS011;22846;42.654;23.314;2023-04-22T01:46:44;6.97;;;6.25;;
31336;SDS011;22846;42.654;23.314;2023-04-22T01:49:09;7.43;;;6.25;;
31336;SDS011;22846;42.654;23.314;2023-04-22T01:51:35;7.30;;;6.20;;
31336;SDS011;22846;42.654;23.314;2023-04-22T01:54:00;8.45;;;6.07;;
31336;SDS011;22846;42.654;23.314;2023-04-22T01:56:28;8.30;;;6.80;;
31336;SDS011;22846;42.654;23.314;2023-04-22T01:58:53;10.23;;;6.57;;
31336;SDS011;22846;42.654;23.314;2023-04-22T02:01:19;8.43;;;6.10;;
31336;SDS011;22846;42.654;23.314;2023-04-22T02:03:44;6.32;;;5.20;;
31336;SDS011;22846;42.654;23.314;2023-04-22T02:06:10;8.25;;;6.35;;
31336;SDS011;22846;42.654;23.314;2023-04-22T02:08:35;7.80;;;6.30;;
31336;SDS011;22846;42.654;23.314;2023-04-22T02:11:00;8.63;;;6.00;;
31336;SDS011;22846;42.654;23.314;2023-04-22T02:13:33;7.25;;;5.93;;
31336;SDS011;22846;42.654;23.314;2023-04-22T02:18:25;6.75;;;5.85;;
31336;SDS011;22846;42.654;23.314;2023-04-22T02:20:50;6.45;;;5.72;;
31336;SDS011;22846;42.654;23.314;2023-04-22T02:23:15;7.05;;;5.70;;
31336;SDS011;22846;42.654;23.314;2023-04-22T02:25:46;7.00;;;6.00;;
31336;SDS011;22846;42.654;23.314;2023-04-22T02:28:12;6.93;;;5.95;;
31336;SDS011;22846;42.654;23.314;2023-04-22T02:30:38;6.28;;;5.13;;
31336;SDS011;22846;42.654;23.314;2023-04-22T02:33:03;7.70;;;5.75;;
31336;SDS011;22846;42.654;23.314;2023-04-22T02:35:28;8.90;;;5.90;;
31336;SDS011;22846;42.654;23.314;2023-04-22T02:37:54;6.90;;;5.18;;
31336;SDS011;22846;42.654;23.314;2023-04-22T02:40:19;7.32;;;5.95;;
31336;SDS011;22846;42.654;23.314;2023-04-22T02:42:45;7.68;;;5.82;;
31336;SDS011;22846;42.654;23.314;2023-04-22T02:45:12;6.63;;;5.57;;
31336;SDS011;22846;42.654;23.314;2023-04-22T02:47:38;5.82;;;5.05;;
31336;SDS011;22846;42.654;23.314;2023-04-22T02:50:04;8.15;;;6.22;;
31336;SDS011;22846;42.654;23.314;2023-04-22T02:52:31;8.32;;;5.50;;
31336;SDS011;22846;42.654;23.314;2023-04-22T02:54:57;7.20;;;5.97;;
31336;SDS011;22846;42.654;23.314;2023-04-22T02:57:23;7.43;;;5.88;;
31336;SDS011;22846;42.654;23.314;2023-04-22T02:59:48;6.72;;;5.20;;
31336;SDS011;22846;42.654;23.314;2023-04-22T03:02:13;6.80;;;5.70;;
31336;SDS011;22846;42.654;23.314;2023-04-22T03:04:39;6.53;;;5.70;;
31336;SDS011;22846;42.654;23.314;2023-04-22T03:07:04;5.90;;;5.03;;
31336;SDS011;22846;42.654;23.314;2023-04-22T03:09:30;6.88;;;5.75;;
31336;SDS011;22846;42.654;23.314;2023-04-22T03:11:55;6.38;;;5.18;;
31336;SDS011;22846;42.654;23.314;2023-04-22T03:14:21;7.03;;;5.72;;
31336;SDS011;22846;42.654;23.314;2023-04-22T03:16:46;6.90;;;5.68;;
31336;SDS011;22846;42.654;23.314;2023-04-22T03:19:12;7.80;;;5.85;;
31336;SDS011;22846;42.654;23.314;2023-04-22T03:21:37;6.82;;;5.90;;
31336;SDS011;22846;42.654;23.314;2023-04-22T03:24:02;6.70;;;5.70;;
31336;SDS011;22846;42.654;23.314;2023-04-22T03:26:28;5.95;;;4.97;;
31336;SDS011;22846;42.654;23.314;2023-04-22T03:28:53;7.50;;;5.10;;
31336;SDS011;22846;42.654;23.314;2023-04-22T03:31:18;5.50;;;4.88;;
31336;SDS011;22846;42.654;23.314;2023-04-22T03:33:44;5.50;;;4.93;;
31336;SDS011;22846;42.654;23.314;2023-04-22T03:36:09;6.82;;;5.30;;
31336;SDS011;22846;42.654;23.314;2023-04-22T03:38:35;7.15;;;5.60;;
31336;SDS011;22846;42.654;23.314;2023-04-22T03:41:00;6.53;;;5.50;;
31336;SDS011;22846;42.654;23.314;2023-04-22T03:43:25;5.97;;;5.35;;
31336;SDS011;22846;42.654;23.314;2023-04-22T03:45:51;6.57;;;4.82;;
31336;SDS011;22846;42.654;23.314;2023-04-22T03:48:16;6.22;;;5.25;;
31336;SDS011;22846;42.654;23.314;2023-04-22T03:50:42;7.63;;;5.03;;
31336;SDS011;22846;42.654;23.314;2023-04-22T03:53:07;7.13;;;5.13;;
31336;SDS011;22846;42.654;23.314;2023-04-22T03:55:33;6.40;;;5.20;;
31336;SDS011;22846;42.654;23.314;2023-04-22T03:57:58;6.22;;;5.15;;
31336;SDS011;22846;42.654;23.314;2023-04-22T04:00:23;5.88;;;4.97;;
31336;SDS011;22846;42.654;23.314;2023-04-22T04:02:49;6.13;;;5.40;;
31336;SDS011;22846;42.654;23.314;2023-04-22T04:05:14;6.60;;;4.95;;
31336;SDS011;22846;42.654;23.314;2023-04-22T04:07:40;5.63;;;5.10;;
31336;SDS011;22846;42.654;23.314;2023-04-22T04:10:06;6.18;;;4.93;;
31336;SDS011;22846;42.654;23.314;2023-04-22T04:12:32;5.90;;;4.82;;
31336;SDS011;22846;42.654;23.314;2023-04-22T04:14:57;7.88;;;4.97;;
31336;SDS011;22846;42.654;23.314;2023-04-22T04:17:23;6.15;;;5.28;;
31336;SDS011;22846;42.654;23.314;2023-04-22T04:19:50;5.85;;;4.88;;
31336;SDS011;22846;42.654;23.314;2023-04-22T04:22:16;7.00;;;5.10;;
31336;SDS011;22846;42.654;23.314;2023-04-22T04:24:42;6.10;;;5.15;;
31336;SDS011;22846;42.654;23.314;2023-04-22T04:27:08;6.53;;;5.35;;
31336;SDS011;22846;42.654;23.314;2023-04-22T04:29:34;6.93;;;4.97;;
31336;SDS011;22846;42.654;23.314;2023-04-22T04:32:00;6.32;;;5.00;;
31336;SDS011;22846;42.654;23.314;2023-04-22T04:34:25;5.63;;;4.90;;
31336;SDS011;22846;42.654;23.314;2023-04-22T04:36:51;6.55;;;5.15;;
31336;SDS011;22846;42.654;23.314;2023-04-22T04:39:16;5.40;;;4.90;;
31336;SDS011;22846;42.654;23.314;2023-04-22T04:41:41;5.13;;;4.53;;
31336;SDS011;22846;42.654;23.314;2023-04-22T04:44:07;5.75;;;4.80;;
31336;SDS011;22846;42.654;23.314;2023-04-22T04:46:33;6.03;;;4.82;;
31336;SDS011;22846;42.654;23.314;2023-04-22T04:48:58;5.55;;;4.72;;
31336;SDS011;22846;42.654;23.314;2023-04-22T04:51:24;7.13;;;5.15;;
31336;SDS011;22846;42.654;23.314;2023-04-22T04:53:49;4.68;;;4.15;;
31336;SDS011;22846;42.654;23.314;2023-04-22T04:56:14;6.22;;;5.03;;
31336;SDS011;22846;42.654;23.314;2023-04-22T04:58:40;6.30;;;4.72;;
31336;SDS011;22846;42.654;23.314;2023-04-22T05:01:06;5.10;;;4.60;;
31336;SDS011;22846;42.654;23.314;2023-04-22T05:03:31;6.53;;;5.20;;
31336;SDS011;22846;42.654;23.314;2023-04-22T05:05:57;5.18;;;4.57;;
31336;SDS011;22846;42.654;23.314;2023-04-22T05:08:22;5.75;;;4.85;;
31336;SDS011;22846;42.654;23.314;2023-04-22T05:10:48;5.15;;;4.63;;
31336;SDS011;22846;42.654;23.314;2023-04-22T05:13:13;5.28;;;4.72;;
31336;SDS011;22846;42.654;23.314;2023-04-22T05:15:38;5.97;;;4.65;;
31336;SDS011;22846;42.654;23.314;2023-04-22T05:18:04;5.88;;;5.10;;
31336;SDS011;22846;42.654;23.314;2023-04-22T05:20:30;5.20;;;4.70;;
31336;SDS011;22846;42.654;23.314;2023-04-22T05:22:55;6.75;;;4.97;;
31336;SDS011;22846;42.654;23.314;2023-04-22T05:25:21;5.85;;;4.90;;
31336;SDS011;22846;42.654;23.314;2023-04-22T05:27:46;5.82;;;4.78;;
31336;SDS011;22846;42.654;23.314;2023-04-22T05:30:12;5.93;;;4.70;;
31336;SDS011;22846;42.654;23.314;2023-04-22T05:32:37;5.85;;;4.60;;
31336;SDS011;22846;42.654;23.314;2023-04-22T05:35:02;5.97;;;4.57;;
31336;SDS011;22846;42.654;23.314;2023-04-22T05:37:28;5.60;;;5.00;;
31336;SDS011;22846;42.654;23.314;2023-04-22T05:39:53;6.82;;;5.38;;
31336;SDS011;22846;42.654;23.314;2023-04-22T05:42:19;6.15;;;4.95;;
31336;SDS011;22846;42.654;23.314;2023-04-22T05:44:44;6.78;;;4.97;;
31336;SDS011;22846;42.654;23.314;2023-04-22T05:47:10;6.22;;;4.82;;
31336;SDS011;22846;42.654;23.314;2023-04-22T05:49:35;6.68;;;4.75;;
31336;SDS011;22846;42.654;23.314;2023-04-22T05:52:01;6.55;;;4.70;;
31336;SDS011;22846;42.654;23.314;2023-04-22T05:54:27;6.57;;;5.43;;
31336;SDS011;22846;42.654;23.314;2023-04-22T05:56:53;5.65;;;4.72;;
31336;SDS011;22846;42.654;23.314;2023-04-22T05:59:18;4.97;;;4.47;;
31336;SDS011;22846;42.654;23.314;2023-04-22T06:01:44;5.28;;;4.75;;
31336;SDS011;22846;42.654;23.314;2023-04-22T06:04:09;5.28;;;4.53;;
31336;SDS011;22846;42.654;23.314;2023-04-22T06:06:36;6.70;;;5.18;;
31336;SDS011;22846;42.654;23.314;2023-04-22T06:09:01;5.63;;;4.93;;
31336;SDS011;22846;42.654;23.314;2023-04-22T06:11:27;7.10;;;5.07;;
31336;SDS011;22846;42.654;23.314;2023-04-22T06:13:53;7.22;;;4.63;;
31336;SDS011;22846;42.654;23.314;2023-04-22T06:16:18;5.63;;;4.70;;
31336;SDS011;22846;42.654;23.314;2023-04-22T06:18:44;5.25;;;4.75;;
31336;SDS011;22846;42.654;23.314;2023-04-22T06:21:09;5.38;;;4.68;;
31336;SDS011;22846;42.654;23.314;2023-04-22T06:23:35;4.63;;;3.90;;
31336;SDS011;22846;42.654;23.314;2023-04-22T06:26:00;5.80;;;4.30;;
31336;SDS011;22846;42.654;23.314;2023-04-22T06:28:26;4.57;;;3.60;;
31336;SDS011;22846;42.654;23.314;2023-04-22T06:30:52;4.05;;;3.65;;
31336;SDS011;22846;42.654;23.314;2023-04-22T06:33:17;4.93;;;3.75;;
31336;SDS011;22846;42.654;23.314;2023-04-22T06:35:43;6.22;;;4.00;;
31336;SDS011;22846;42.654;23.314;2023-04-22T06:38:08;5.45;;;4.18;;
31336;SDS011;22846;42.654;23.314;2023-04-22T06:40:34;8.88;;;4.53;;
31336;SDS011;22846;42.654;23.314;2023-04-22T06:42:59;7.97;;;4.60;;
31336;SDS011;22846;42.654;23.314;2023-04-22T06:45:25;6.03;;;4.10;;
31336;SDS011;22846;42.654;23.314;2023-04-22T06:47:51;7.43;;;4.40;;
31336;SDS011;22846;42.654;23.314;2023-04-22T06:50:18;24.98;;;6.05;;
31336;SDS011;22846;42.654;23.314;2023-04-22T06:52:43;33.10;;;7.25;;
31336;SDS011;22846;42.654;23.314;2023-04-22T06:55:09;31.17;;;10.35;;
31336;SDS011;22846;42.654;23.314;2023-04-22T06:57:34;26.48;;;8.23;;
31336;SDS011;22846;42.654;23.314;2023-04-22T06:59:59;25.77;;;7.97;;
31336;SDS011;22846;42.654;23.314;2023-04-22T07:02:25;26.55;;;8.27;;
31336;SDS011;22846;42.654;23.314;2023-04-22T07:04:50;20.80;;;7.15;;
31336;SDS011;22846;42.654;23.314;2023-04-22T07:07:16;25.55;;;7.70;;
31336;SDS011;22846;42.654;23.314;2023-04-22T07:09:42;17.55;;;7.28;;
31336;SDS011;22846;42.654;23.314;2023-04-22T07:12:07;20.13;;;7.25;;
31336;SDS011;22846;42.654;23.314;2023-04-22T07:14:33;15.63;;;7.57;;
31336;SDS011;22846;42.654;23.314;2023-04-22T07:16:58;20.85;;;7.45;;
31336;SDS011;22846;42.654;23.314;2023-04-22T07:19:24;21.90;;;6.80;;
31336;SDS011;22846;42.654;23.314;2023-04-22T07:21:49;22.42;;;6.85;;
31336;SDS011;22846;42.654;23.314;2023-04-22T07:24:15;18.27;;;6.78;;
31336;SDS011;22846;42.654;23.314;2023-04-22T07:26:40;13.18;;;6.00;;
31336;SDS011;22846;42.654;23.314;2023-04-22T07:29:06;20.63;;;6.43;;
31336;SDS011;22846;42.654;23.314;2023-04-22T07:31:33;16.77;;;6.40;;
31336;SDS011;22846;42.654;23.314;2023-04-22T07:33:59;20.23;;;6.07;;
31336;SDS011;22846;42.654;23.314;2023-04-22T07:36:25;25.35;;;6.78;;
31336;SDS011;22846;42.654;23.314;2023-04-22T07:38:50;11.20;;;5.68;;
31336;SDS011;22846;42.654;23.314;2023-04-22T07:41:16;11.55;;;5.70;;
31336;SDS011;22846;42.654;23.314;2023-04-22T07:43:41;13.70;;;6.05;;
31336;SDS011;22846;42.654;23.314;2023-04-22T07:46:06;14.75;;;5.88;;
31336;SDS011;22846;42.654;23.314;2023-04-22T07:48:32;11.38;;;5.68;;
31336;SDS011;22846;42.654;23.314;2023-04-22T07:50:57;15.63;;;5.85;;
31336;SDS011;22846;42.654;23.314;2023-04-22T07:53:22;16.33;;;5.40;;
31336;SDS011;22846;42.654;23.314;2023-04-22T07:55:48;9.80;;;5.13;;
31336;SDS011;22846;42.654;23.314;2023-04-22T07:58:14;14.57;;;5.53;;
31336;SDS011;22846;42.654;23.314;2023-04-22T08:00:40;13.65;;;5.18;;
31336;SDS011;22846;42.654;23.314;2023-04-22T08:03:05;16.63;;;5.50;;
31336;SDS011;22846;42.654;23.314;2023-04-22T08:05:31;13.02;;;5.30;;
31336;SDS011;22846;42.654;23.314;2023-04-22T08:07:56;13.68;;;5.47;;
31336;SDS011;22846;42.654;23.314;2023-04-22T08:10:21;13.35;;;5.13;;
31336;SDS011;22846;42.654;23.314;2023-04-22T08:12:47;12.05;;;5.57;;
31336;SDS011;22846;42.654;23.314;2023-04-22T08:15:12;10.90;;;5.20;;
31336;SDS011;22846;42.654;23.314;2023-04-22T08:17:38;9.00;;;5.35;;
31336;SDS011;22846;42.654;23.314;2023-04-22T08:20:04;13.18;;;5.50;;
31336;SDS011;22846;42.654;23.314;2023-04-22T08:22:30;11.07;;;5.20;;
31336;SDS011;22846;42.654;23.314;2023-04-22T08:24:57;11.15;;;5.55;;
31336;SDS011;22846;42.654;23.314;2023-04-22T08:27:23;11.43;;;5.30;;
31336;SDS011;22846;42.654;23.314;2023-04-22T08:29:48;9.48;;;4.85;;
31336;SDS011;22846;42.654;23.314;2023-04-22T08:32:14;12.30;;;4.80;;
31336;SDS011;22846;42.654;23.314;2023-04-22T08:34:40;10.27;;;5.20;;
31336;SDS011;22846;42.654;23.314;2023-04-22T08:37:06;12.38;;;5.65;;
31336;SDS011;22846;42.654;23.314;2023-04-22T08:39:32;8.32;;;4.70;;
31336;SDS011;22846;42.654;23.314;2023-04-22T08:41:57;11.18;;;5.07;;
31336;SDS011;22846;42.654;23.314;2023-04-22T08:44:23;7.95;;;4.55;;
31336;SDS011;22846;42.654;23.314;2023-04-22T08:46:49;10.70;;;4.68;;
31336;SDS011;22846;42.654;23.314;2023-04-22T08:49:16;7.88;;;5.05;;
31336;SDS011;22846;42.654;23.314;2023-04-22T08:51:46;9.73;;;4.85;;
31336;SDS011;22846;42.654;23.314;2023-04-22T08:54:13;7.97;;;4.80;;
31336;SDS011;22846;42.654;23.314;2023-04-22T08:56:39;8.75;;;4.68;;
31336;SDS011;22846;42.654;23.314;2023-04-22T08:59:08;9.23;;;5.00;;
31336;SDS011;22846;42.654;23.314;2023-04-22T09:01:35;8.68;;;4.80;;
31336;SDS011;22846;42.654;23.314;2023-04-22T09:04:02;10.68;;;4.68;;
31336;SDS011;22846;42.654;23.314;2023-04-22T09:06:27;10.25;;;5.15;;
31336;SDS011;22846;42.654;23.314;2023-04-22T09:08:56;7.57;;;4.55;;
31336;SDS011;22846;42.654;23.314;2023-04-22T09:11:23;9.82;;;4.80;;
31336;SDS011;22846;42.654;23.314;2023-04-22T09:13:50;11.05;;;4.72;;
31336;SDS011;22846;42.654;23.314;2023-04-22T09:16:18;8.45;;;4.68;;
31336;SDS011;22846;42.654;23.314;2023-04-22T09:18:43;8.48;;;5.22;;
31336;SDS011;22846;42.654;23.314;2023-04-22T09:21:10;12.85;;;6.13;;
31336;SDS011;22846;42.654;23.314;2023-04-22T09:23:43;15.00;;;6.45;;
31336;SDS011;22846;42.654;23.314;2023-04-22T09:26:09;15.35;;;7.93;;
31336;SDS011;22846;42.654;23.314;2023-04-22T09:28:35;18.75;;;8.13;;
31336;SDS011;22846;42.654;23.314;2023-04-22T09:31:01;18.23;;;9.65;;
31336;SDS011;22846;42.654;23.314;2023-04-22T09:33:27;19.38;;;9.20;;
31336;SDS011;22846;42.654;23.314;2023-04-22T09:35:54;18.58;;;10.00;;
31336;SDS011;22846;42.654;23.314;2023-04-22T09:38:20;21.52;;;11.05;;
31336;SDS011;22846;42.654;23.314;2023-04-22T09:40:45;21.50;;;10.70;;
31336;SDS011;22846;42.654;23.314;2023-04-22T09:43:11;19.52;;;10.00;;
31336;SDS011;22846;42.654;23.314;2023-04-22T09:45:38;22.95;;;11.93;;
31336;SDS011;22846;42.654;23.314;2023-04-22T09:48:06;25.73;;;11.63;;
31336;SDS011;22846;42.654;23.314;2023-04-22T09:50:36;23.77;;;11.80;;
31336;SDS011;22846;42.654;23.314;2023-04-22T09:53:04;21.85;;;11.02;;
31336;SDS011;22846;42.654;23.314;2023-04-22T09:55:33;23.13;;;11.50;;
31336;SDS011;22846;42.654;23.314;2023-04-22T09:58:08;23.58;;;11.55;;
31336;SDS011;22846;42.654;23.314;2023-04-22T10:00:40;25.50;;;12.48;;
31336;SDS011;22846;42.654;23.314;2023-04-22T10:03:08;25.27;;;12.85;;
31336;SDS011;22846;42.654;23.314;2023-04-22T10:05:33;19.95;;;10.98;;
31336;SDS011;22846;42.654;23.314;2023-04-22T10:08:07;24.90;;;12.00;;
31336;SDS011;22846;42.654;23.314;2023-04-22T10:10:33;22.70;;;12.10;;
31336;SDS011;22846;42.654;23.314;2023-04-22T10:12:59;25.15;;;12.27;;
31336;SDS011;22846;42.654;23.314;2023-04-22T10:15:29;23.67;;;12.25;;
31336;SDS011;22846;42.654;23.314;2023-04-22T10:17:57;23.90;;;12.48;;
31336;SDS011;22846;42.654;23.314;2023-04-22T10:20:23;26.58;;;12.40;;
31336;SDS011;22846;42.654;23.314;2023-04-22T10:22:51;23.75;;;12.65;;
31336;SDS011;22846;42.654;23.314;2023-04-22T10:25:24;27.25;;;13.45;;
31336;SDS011;22846;42.654;23.314;2023-04-22T10:28:04;24.27;;;12.07;;
31336;SDS011;22846;42.654;23.314;2023-04-22T10:30:32;24.67;;;12.18;;
31336;SDS011;22846;42.654;23.314;2023-04-22T10:36:14;23.73;;;13.23;;
31336;SDS011;22846;42.654;23.314;2023-04-22T10:41:25;24.52;;;12.45;;
31336;SDS011;22846;42.654;23.314;2023-04-22T10:43:58;22.98;;;12.38;;
31336;SDS011;22846;42.654;23.314;2023-04-22T10:48:59;23.20;;;13.20;;
31336;SDS011;22846;42.654;23.314;2023-04-22T10:51:37;25.80;;;13.17;;
31336;SDS011;22846;42.654;23.314;2023-04-22T10:54:07;26.17;;;12.55;;
31336;SDS011;22846;42.654;23.314;2023-04-22T10:59:54;23.15;;;11.38;;
31336;SDS011;22846;42.654;23.314;2023-04-22T11:02:20;24.75;;;11.45;;
31336;SDS011;22846;42.654;23.314;2023-04-22T11:04:46;23.90;;;11.70;;
31336;SDS011;22846;42.654;23.314;2023-04-22T11:09:51;21.83;;;11.07;;
31336;SDS011;22846;42.654;23.314;2023-04-22T11:15:18;21.70;;;11.55;;
31336;SDS011;22846;42.654;23.314;2023-04-22T11:17:46;22.45;;;12.00;;
31336;SDS011;22846;42.654;23.314;2023-04-22T11:20:16;22.45;;;11.90;;
31336;SDS011;22846;42.654;23.314;2023-04-22T11:22:42;21.52;;;11.10;;
31336;SDS011;22846;42.654;23.314;2023-04-22T11:25:10;21.23;;;11.77;;
31336;SDS011;22846;42.654;23.314;2023-04-22T11:27:36;22.63;;;11.85;;
31336;SDS011;22846;42.654;23.314;2023-04-22T11:32:49;18.83;;;10.73;;
31336;SDS011;22846;42.654;23.314;2023-04-22T11:35:19;24.10;;;12.10;;
31336;SDS011;22846;42.654;23.314;2023-04-22T11:37:48;21.63;;;10.85;;
31336;SDS011;22846;42.654;23.314;2023-04-22T11:40:16;20.98;;;11.32;;
31336;SDS011;22846;42.654;23.314;2023-04-22T11:42:43;23.08;;;11.27;;
31336;SDS011;22846;42.654;23.314;2023-04-22T11:45:09;20.13;;;11.30;;
31336;SDS011;22846;42.654;23.314;2023-04-22T11:47:36;20.80;;;11.40;;
31336;SDS011;22846;42.654;23.314;2023-04-22T11:50:03;19.13;;;11.30;;
31336;SDS011;22846;42.654;23.314;2023-04-22T11:53:31;22.10;;;11.95;;
31336;SDS011;22846;42.654;23.314;2023-04-22T11:55:33;21.40;;;10.93;;
31336;SDS011;22846;42.654;23.314;2023-04-22T11:58:01;19.98;;;11.52;;
31336;SDS011;22846;42.654;23.314;2023-04-22T12:00:29;21.55;;;12.07;;
31336;SDS011;22846;42.654;23.314;2023-04-22T12:03:06;20.70;;;11.20;;
31336;SDS011;22846;42.654;23.314;2023-04-22T12:08:07;21.02;;;11.57;;
31336;SDS011;22846;42.654;23.314;2023-04-22T12:10:38;18.70;;;10.50;;
31336;SDS011;22846;42.654;23.314;2023-04-22T12:13:08;18.88;;;11.05;;
31336;SDS011;22846;42.654;23.314;2023-04-22T12:15:41;27.52;;;10.07;;
31336;SDS011;22846;42.654;23.314;2023-04-22T12:18:07;34.70;;;11.15;;
31336;SDS011;22846;42.654;23.314;2023-04-22T12:20:34;29.75;;;11.35;;
31336;SDS011;22846;42.654;23.314;2023-04-22T12:23:00;27.55;;;10.10;;
31336;SDS011;22846;42.654;23.314;2023-04-22T12:25:27;25.20;;;10.60;;
31336;SDS011;22846;42.654;23.314;2023-04-22T12:27:53;30.63;;;10.07;;
31336;SDS011;22846;42.654;23.314;2023-04-22T12:30:20;26.13;;;10.32;;
31336;SDS011;22846;42.654;23.314;2023-04-22T12:32:47;28.40;;;10.50;;
31336;SDS011;22846;42.654;23.314;2023-04-22T12:35:12;22.88;;;10.02;;
31336;SDS011;22846;42.654;23.314;2023-04-22T12:37:38;19.67;;;10.13;;
31336;SDS011;22846;42.654;23.314;2023-04-22T12:40:03;21.02;;;10.07;;
31336;SDS011;22846;42.654;23.314;2023-04-22T12:42:30;22.80;;;10.77;;
31336;SDS011;22846;42.654;23.314;2023-04-22T12:44:56;27.10;;;9.75;;
31336;SDS011;22846;42.654;23.314;2023-04-22T12:47:21;25.10;;;10.75;;
31336;SDS011;22846;42.654;23.314;2023-04-22T12:49:46;22.30;;;10.52;;
31336;SDS011;22846;42.654;23.314;2023-04-22T12:52:13;24.92;;;10.27;;
31336;SDS011;22846;42.654;23.314;2023-04-22T12:54:38;30.83;;;9.60;;
31336;SDS011;22846;42.654;23.314;2023-04-22T12:57:04;24.00;;;9.88;;
31336;SDS011;22846;42.654;23.314;2023-04-22T12:59:29;29.00;;;10.40;;
31336;SDS011;22846;42.654;23.314;2023-04-22T13:01:54;18.63;;;9.70;;
31336;SDS011;22846;42.654;23.314;2023-04-22T13:04:20;25.70;;;9.68;;
31336;SDS011;22846;42.654;23.314;2023-04-22T13:06:45;22.80;;;9.07;;
31336;SDS011;22846;42.654;23.314;2023-04-22T13:09:11;22.73;;;9.23;;
31336;SDS011;22846;42.654;23.314;2023-04-22T13:11:37;23.73;;;10.10;;
31336;SDS011;22846;42.654;23.314;2023-04-22T13:14:02;27.15;;;9.55;;
31336;SDS011;22846;42.654;23.314;2023-04-22T13:16:28;20.83;;;9.52;;
31336;SDS011;22846;42.654;23.314;2023-04-22T13:18:53;21.42;;;9.65;;
31336;SDS011;22846;42.654;23.314;2023-04-22T13:21:19;24.60;;;9.63;;
31336;SDS011;22846;42.654;23.314;2023-04-22T13:23:44;27.02;;;8.85;;
31336;SDS011;22846;42.654;23.314;2023-04-22T13:26:10;23.90;;;10.23;;
31336;SDS011;22846;42.654;23.314;2023-04-22T13:28:35;27.73;;;11.23;;
31336;SDS011;22846;42.654;23.314;2023-04-22T13:31:01;28.73;;;11.25;;
31336;SDS011;22846;42.654;23.314;2023-04-22T13:33:26;27.77;;;11.05;;
31336;SDS011;22846;42.654;23.314;2023-04-22T13:35:52;23.88;;;10.52;;
31336;SDS011;22846;42.654;23.314;2023-04-22T13:38:17;24.25;;;10.15;;
31336;SDS011;22846;42.654;23.314;2023-04-22T13:40:43;26.40;;;9.98;;
31336;SDS011;22846;42.654;23.314;2023-04-22T13:43:09;26.73;;;9.85;;
31336;SDS011;22846;42.654;23.314;2023-04-22T13:45:34;23.77;;;9.50;;
31336;SDS011;22846;42.654;23.314;2023-04-22T13:47:59;25.30;;;7.25;;
31336;SDS011;22846;42.654;23.314;2023-04-22T13:50:25;17.45;;;6.40;;
31336;SDS011;22846;42.654;23.314;2023-04-22T13:52:50;9.18;;;4.38;;
31336;SDS011;22846;42.654;23.314;2023-04-22T13:55:16;8.77;;;3.17;;
31336;SDS011;22846;42.654;23.314;2023-04-22T13:57:41;15.07;;;3.70;;
31336;SDS011;22846;42.654;23.314;2023-04-22T14:00:07;16.83;;;6.40;;
31336;SDS011;22846;42.654;23.314;2023-04-22T14:02:33;15.65;;;3.90;;
31336;SDS011;22846;42.654;23.314;2023-04-22T14:04:59;14.50;;;3.58;;
31336;SDS011;22846;42.654;23.314;2023-04-22T14:07:25;22.85;;;4.90;;
31336;SDS011;22846;42.654;23.314;2023-04-22T14:09:50;16.67;;;3.35;;
31336;SDS011;22846;42.654;23.314;2023-04-22T14:12:16;21.67;;;4.47;;
31336;SDS011;22846;42.654;23.314;2023-04-22T14:14:41;5.18;;;2.30;;
31336;SDS011;22846;42.654;23.314;2023-04-22T14:17:07;22.95;;;4.78;;
31336;SDS011;22846;42.654;23.314;2023-04-22T14:19:32;49.85;;;7.70;;
31336;SDS011;22846;42.654;23.314;2023-04-22T14:22:00;55.33;;;8.70;;
31336;SDS011;22846;42.654;23.314;2023-04-22T14:24:25;20.27;;;5.15;;
31336;SDS011;22846;42.654;23.314;2023-04-22T14:26:51;24.02;;;5.90;;
31336;SDS011;22846;42.654;23.314;2023-04-22T14:29:17;24.05;;;6.03;;
31336;SDS011;22846;42.654;23.314;2023-04-22T14:31:43;27.63;;;5.30;;
31336;SDS011;22846;42.654;23.314;2023-04-22T14:34:08;28.48;;;5.70;;
31336;SDS011;22846;42.654;23.314;2023-04-22T14:36:34;18.17;;;5.20;;
31336;SDS011;22846;42.654;23.314;2023-04-22T14:38:59;18.23;;;5.13;;
31336;SDS011;22846;42.654;23.314;2023-04-22T14:41:25;22.35;;;5.18;;
31336;SDS011;22846;42.654;23.314;2023-04-22T14:43:50;17.48;;;5.38;;
31336;SDS011;22846;42.654;23.314;2023-04-22T14:46:15;15.32;;;5.15;;